Aérodrome :
LOGIN :

S'inscrire | Disclaimer

   EN    FR    IT 

 










Légende :    VFR   VFR Marginal   IFR   IFR Intensif   IFR Très Intensif
Visi : 
Plafond : 
>= 8 km
>= 3000ft
5 à 8 km
1000 à 3000 ft
1500m à 5 km
500 à 1000 ft
800 à 1500m
200 à 500 ft
< 800m
< 200 ft
Symboles :   Orages  Brouillard  Fortes neiges  Fortes précipitations  Vent > 20 kt
SIGMETs :   Divers  Orages  Givrage  Turbulence  Onde Orograph.  Cendres Volcan.







- Altitude de l'aérodrome : 2077 ft
- Code IATA : FMM


EDJA - Memmingen

DERNIER METAR :
  • 250620Z 06004KT 030V090 8000 FEW007 14/11 Q1023

METARs EXPIRÉS :
  • 250550Z VRB01KT 7000 FEW051 SCT063 13/12 Q1023
  • 250520Z 00000KT 7000 FEW053 12/11 Q1023
  • 250450Z VRB01KT 7000 SCT046 BKN069 12/11 Q1023
  • 250420Z VRB01KT 7000 FEW013 BKN048 11/10 Q1023
  • 250350Z VRB02KT 4900 FEW013 BKN047 11/10 Q1023

TAF TAF EDJA
Valide du 25 à 06h jusqu'au 25 à 15h UTC


250500Z 2506/2515 03005KT 9999 SCT030
Pas de NOTAMs connus pour ce terrain.



MET'MAP, la Météo Aéronautique d'un coup d'oeil ! - Copyright ORBIFLY Décembre 2007 - Disclaimer

ORBIFLY MET'MAP TEAM :

Programmation & Développement : Alexandra Zaïnal
Conception & Développement : Baudouin d'Aumeries
Co-Programmation & Développement : Marc-Olivier Méhu
Soutien technique & logistique : Manuel Goepfert

Contact : metmap@orbifly.com




SOURCES & CREDITS :

   NOAA